Latest Weather Observations for Richmond

IDN60801

Issued at 10:42 am EST Tuesday 26 May 2020 (issued every 10 minutes, with the page automatically refreshed every 10 minutes)

About weather observations | Map of weather stations | Latest weather observations for NSW | Other Formats
Station Details ID: 067105 Name: RICHMOND RAAF Lat: -33.60 Lon: 150.78 Height: 19.0 m
Data from the previous 72 hours. | See also: Recent months at Richmond
Date/Time
EST
Temp
°C
App
Temp
°C
Dew
Point
°C
Rel
Hum
%
Delta-T
°C
Wind Press
QNH
hPa
Press
MSL
hPa
Rain since
9am
mm
Dir  Spd
km/h
Gust
km/h
Spd
kts
Gust
kts
26/10:30am 17.0 14.2 13.3 79 2.1 SSW 20 32 11 17 1023.1 1023.1 0.0
26/10:00am 16.5 13.9 13.8 84 1.5 SSW 20 28 11 15 1023.0 1023.0 0.0
26/09:30am 15.1 12.4 12.8 86 1.3 SSW 19 26 10 14 1022.9 1022.9 0.0
26/09:00am 15.8 12.8 11.8 77 2.2 S 19 26 10 14 1022.8 1022.8 2.2
26/08:30am 15.3 13.4 11.7 79 1.9 S 13 19 7 10 1022.6 1022.6 2.2
26/08:00am 14.3 13.6 12.0 86 1.2 S 7 11 4 6 1022.4 1022.4 2.2
26/07:30am 14.3 13.1 11.5 83 1.5 S 9 15 5 8 1022.3 1022.3 2.2
26/07:00am 14.4 12.3 11.2 81 1.7 SSW 13 19 7 10 1022.0 1022.0 2.2
26/06:30am 14.4 11.9 11.2 81 1.7 SSW 15 20 8 11 1021.8 1021.8 2.2
26/06:00am 14.2 11.7 11.2 82 1.6 SSW 15 22 8 12 1021.5 1021.5 2.2
26/05:30am 14.4 11.4 10.8 79 1.9 SSW 17 22 9 12 1021.3 1021.3 2.2
26/05:00am 14.5 11.0 10.9 79 1.9 SSW 20 30 11 16 1021.1 1021.1 2.2
26/04:30am 14.3 10.9 10.7 79 1.9 SW 19 28 10 15 1020.8 1020.8 2.2
26/04:00am 14.2 11.2 10.6 79 1.9 SSW 17 24 9 13 1020.9 1020.9 2.2
26/03:30am 14.1 11.4 10.5 79 1.9 SSW 15 22 8 12 1020.9 1020.9 2.2
26/03:00am 14.3 11.2 10.3 77 2.1 SSW 17 24 9 13 1021.0 1021.0 2.2
26/02:30am 14.4 10.9 10.2 76 2.2 SSW 19 26 10 14 1021.1 1021.1 2.2
26/02:00am 14.5 11.5 10.5 77 2.1 SSW 17 22 9 12 1021.0 1021.0 2.2
26/01:30am 13.9 11.7 10.9 82 1.6 SSW 13 19 7 10 1020.9 1020.9 2.2
26/01:00am 13.7 10.9 11.2 85 1.3 SSW 17 28 9 15 1021.0 1021.0 2.2
26/12:30am 14.0 11.9 11.3 84 1.4 SSW 13 19 7 10 1021.1 1021.1 2.2
26/12:00am 13.8 10.7 11.5 86 1.2 SSW 19 26 10 14 1021.1 1021.1 2.2
 
Date/Time
EST
Temp
°C
App
Temp
°C
Dew
Point
°C
Rel
Hum
%
Delta-T
°C
Wind Press
QNH
hPa
Press
MSL
hPa
Rain since
9am
mm
Dir  Spd
km/h
Gust
km/h
Spd
kts
Gust
kts
25/11:30pm 14.4 11.1 11.0 80 1.8 SSW 19 24 10 13 1021.1 1021.1 2.2
25/11:00pm 13.9 10.7 11.8 87 1.1 SSW 20 32 11 17 1021.0 1021.0 2.2
25/10:30pm 13.6 13.0 12.3 92 0.7 S 7 17 4 9 1021.0 1021.0 2.2
25/10:00pm 13.4 12.8 12.3 93 0.6 SSE 7 13 4 7 1020.8 1020.8 2.0
25/09:30pm 13.8 11.6 12.0 89 1.0 S 15 19 8 10 1020.7 1020.7 1.6
25/09:00pm 13.6 11.4 12.2 91 0.8 SW 15 20 8 11 1020.2 1020.2 1.2
25/08:30pm 13.6 11.4 12.2 91 0.8 SW 15 22 8 12 1020.0 1020.0 1.2
25/08:00pm 13.6 11.9 12.3 92 0.7 SW 13 19 7 10 1019.9 1019.9 0.8
25/07:30pm 13.6 11.4 12.2 91 0.8 SW 15 20 8 11 1019.6 1019.6 0.8
25/07:00pm 14.1 11.8 11.8 86 1.2 SW 15 24 8 13 1019.4 1019.4 0.6
25/06:30pm 14.4 11.6 11.4 82 1.6 SW 17 26 9 14 1019.0 1019.0 0.2
25/06:00pm 15.1 11.9 11.1 77 2.1 SSW 19 28 10 15 1018.8 1018.8 0.2
25/05:30pm 14.9 12.1 11.5 80 1.8 SW 17 28 9 15 1018.6 1018.6 0.2
25/05:00pm 15.0 12.3 11.6 80 1.8 SW 17 24 9 13 1018.2 1018.2 0.2
25/04:30pm 15.2 12.5 11.6 79 1.9 SSW 17 24 9 13 1017.9 1017.9 0.0
25/04:00pm 16.4 12.0 10.5 68 3.1 SSW 24 37 13 20 1017.7 1017.7 0.0
25/03:30pm 17.4 12.5 10.1 62 3.9 SSW 26 39 14 21 1017.4 1017.4 0.0
25/03:00pm 17.5 14.0 10.1 62 3.9 SSW 19 30 10 16 1017.2 1017.2 0.0
25/02:30pm 17.4 14.3 10.3 63 3.8 SSW 17 28 9 15 1017.1 1017.1 0.0
25/02:00pm 17.7 13.2 10.1 61 4.0 SSW 24 43 13 23 1017.0 1017.0 0.0
25/01:33pm 17.5 12.2 9.7 60 4.1 SSW 28 46 15 25 1017.1 1017.1 0.0
25/01:30pm 17.7 12.5 10.1 61 4.0 SSW 28 39 15 21 1017.1 1017.1 0.0
25/01:00pm 17.4 12.8 9.8 61 4.0 SSW 24 33 13 18 1017.1 1017.1 0.0
25/12:36pm 17.3 11.6 9.7 61 4.0 SSW 30 48 16 26 1017.2 1017.2 0.0
25/12:30pm 17.5 11.8 9.9 61 4.0 SSW 30 46 16 25 1017.3 1017.3 0.0
25/12:15pm 17.4 12.1 9.8 61 4.0 SSW 28 46 15 25 1017.4 1017.4 0.0
25/12:00pm 17.4 12.4 9.6 60 4.1 SSW 26 43 14 23 1017.3 1017.3 0.0
25/11:30am 16.8 13.1 9.5 62 3.8 SSW 19 28 10 15 1017.7 1017.7 0.0
25/11:00am 16.3 12.6 9.5 64 3.5 SSW 19 28 10 15 1017.9 1017.9 0.0
25/10:30am 15.7 11.6 8.7 63 3.6 SSW 20 33 11 18 1018.2 1018.2 0.0
25/10:00am 15.5 11.0 8.5 63 3.5 SSW 22 35 12 19 1018.4 1018.4 0.0
25/09:30am 15.3 11.4 8.5 64 3.4 SW 19 30 10 16 1018.2 1018.2 0.0
25/09:00am 14.6 11.0 8.5 67 3.1 SW 17 26 9 14 1018.1 1018.1 0.0
25/08:30am 14.2 10.6 8.2 67 3.0 SW 17 24 9 13 1017.9 1017.9 0.0
25/08:00am 13.9 10.6 8.1 68 2.9 SW 15 22 8 12 1017.8 1017.8 0.0
25/07:30am 12.8 10.2 7.7 71 2.5 WSW 11 13 6 7 1017.6 1017.6 0.0
25/07:00am 12.2 9.9 7.5 73 2.3 WSW 9 13 5 7 1017.3 1017.3 0.0
25/06:30am 11.8 9.4 6.9 72 2.3 WSW 9 13 5 7 1016.8 1016.8 0.0
25/06:00am 12.0 9.6 6.9 71 2.4 WSW 9 13 5 7 1016.6 1016.6 0.0
25/05:30am 12.1 9.4 7.2 72 2.4 WSW 11 13 6 7 1016.4 1016.4 0.0
25/05:00am 11.9 9.1 6.8 71 2.4 WSW 11 13 6 7 1016.3 1016.3 0.0
25/04:30am 12.2 9.3 6.7 69 2.6 SW 11 15 6 8 1016.0 1016.0 0.0
25/04:00am 12.5 9.8 7.2 70 2.6 WSW 11 17 6 9 1015.9 1015.9 0.0
25/03:30am 11.4 8.2 6.7 73 2.2 WSW 13 17 7 9 1015.9 1015.9 0.0
25/03:00am 11.4 8.5 6.3 71 2.4 SW 11 15 6 8 1015.9 1015.9 0.0
25/02:30am 11.9 8.6 6.2 68 2.7 SW 13 17 7 9 1016.0 1016.0 0.0
25/02:00am 12.1 9.3 6.8 70 2.5 WSW 11 13 6 7 1016.1 1016.1 0.0
25/01:30am 11.8 8.9 6.3 69 2.6 SW 11 15 6 8 1016.2 1016.2 0.0
25/01:00am 11.5 8.7 6.8 73 2.2 SW 11 17 6 9 1016.2 1016.2 0.0
25/12:30am 10.2 7.7 6.7 79 1.6 WSW 9 13 5 7 1016.2 1016.2 0.0
25/12:00am 9.6 7.0 6.0 78 1.7 W 9 11 5 6 1016.2 1016.2 0.0
 
Date/Time
EST
Temp
°C
App
Temp
°C
Dew
Point
°C
Rel
Hum
%
Delta-T
°C
Wind Press
QNH
hPa
Press
MSL
hPa
Rain since
9am
mm
Dir  Spd
km/h
Gust
km/h
Spd
kts
Gust
kts
24/11:30pm 9.2 6.4 5.2 76 1.8 W 9 11 5 6 1016.3 1016.3 0.0
24/11:00pm 11.2 8.5 5.7 69 2.5 WSW 9 11 5 6 1016.4 1016.4 0.0
24/10:30pm 11.0 8.4 6.0 71 2.3 WSW 9 13 5 7 1016.3 1016.3 0.0
24/10:00pm 10.8 8.2 6.0 72 2.2 SW 9 13 5 7 1016.3 1016.3 0.0
24/09:30pm 11.8 9.6 6.1 68 2.7 SW 7 9 4 5 1016.2 1016.2 0.0
24/09:00pm 11.9 9.4 6.6 70 2.5 WSW 9 15 5 8 1016.0 1016.0 0.0
24/08:30pm 11.3 8.8 6.4 72 2.3 WSW 9 11 5 6 1015.9 1015.9 0.0
24/08:00pm 12.5 10.1 7.0 69 2.6 SW 9 11 5 6 1015.7 1015.7 0.0
24/07:30pm 13.1 10.6 6.7 65 3.1 SSW 9 15 5 8 1015.5 1015.5 0.0
24/07:00pm 14.2 10.6 6.8 61 3.6 SSW 15 22 8 12 1015.3 1015.3 0.0
24/06:30pm 14.2 11.5 7.3 63 3.4 SSW 11 17 6 9 1015.0 1015.0 0.0
24/06:00pm 15.3 12.2 7.3 59 4.0 SSE 13 19 7 10 1014.4 1014.4 0.0
24/05:30pm 15.7 12.3 7.5 58 4.1 S 15 20 8 11 1014.0 1014.0 0.0
24/05:00pm 16.3 13.0 8.0 58 4.2 S 15 20 8 11 1013.6 1013.6 0.0
24/04:30pm 16.6 13.2 7.8 56 4.4 S 15 20 8 11 1013.1 1013.1 0.0
24/04:00pm 17.1 12.3 7.5 53 4.8 S 22 37 12 20 1012.8 1012.8 0.0
24/03:30pm 17.7 12.6 7.7 52 5.1 SSW 24 33 13 18 1012.5 1012.5 0.0
24/03:00pm 17.8 13.8 8.4 54 4.8 S 19 30 10 16 1012.4 1012.4 0.0
24/02:30pm 17.7 13.4 8.0 53 4.9 S 20 32 11 17 1012.4 1012.4 0.0
24/02:00pm 18.0 13.1 8.3 53 5.0 SSW 24 41 13 22 1012.2 1012.2 0.0
24/01:30pm 17.8 13.4 8.9 56 4.6 SSW 22 32 12 17 1012.2 1012.2 0.0
24/01:00pm 18.0 13.8 9.6 58 4.4 SW 22 32 12 17 1012.0 1012.0 0.0
24/12:30pm 17.9 13.3 9.5 58 4.4 SW 24 32 13 17 1012.0 1012.0 0.0
24/12:17pm 17.8 12.2 8.9 56 4.6 SSW 28 46 15 25 1012.1 1012.1 0.0
24/12:00pm 17.7 12.6 9.3 58 4.4 SSW 26 39 14 21 1012.4 1012.4 0.0
24/11:30am 18.1 13.5 9.5 57 4.5 SSW 24 37 13 20 1012.7 1012.7 0.0
24/11:00am 17.4 12.7 9.3 59 4.2 SSW 24 35 13 19 1012.8 1012.8 0.0
24/10:30am 17.0 11.9 9.2 60 4.1 SSW 26 41 14 22 1012.9 1012.9 0.0
24/10:00am 16.4 12.0 8.9 61 3.9 SW 22 35 12 19 1012.8 1012.8 0.0
24/09:30am 16.5 11.2 8.5 59 4.1 SW 26 35 14 19 1012.6 1012.6 0.0
24/09:00am 15.6 10.6 8.1 61 3.8 SW 24 35 13 19 1012.5 1012.5 1.6
24/08:30am 14.8 10.5 7.8 63 3.5 SSW 20 32 11 17 1012.3 1012.3 1.6
24/08:00am 14.5 11.2 8.0 65 3.2 SW 15 26 8 14 1012.1 1012.1 1.6
24/07:30am 14.1 10.4 7.9 66 3.1 SW 17 30 9 16 1011.5 1011.5 1.6
24/07:00am 13.4 10.5 8.0 70 2.7 SW 13 19 7 10 1011.1 1011.1 1.6
24/06:30am 13.1 10.2 8.0 71 2.5 SW 13 19 7 10 1010.9 1010.9 1.6
24/06:00am 12.9 10.4 8.0 72 2.4 SW 11 22 6 12 1010.6 1010.6 1.6
24/05:30am 12.7 10.2 8.2 74 2.2 SW 11 15 6 8 1010.1 1010.1 1.6
24/05:00am 12.5 10.4 8.4 76 2.0 WSW 9 15 5 8 1009.8 1009.8 1.6
24/04:30am 12.7 10.7 8.6 76 2.0 WSW 9 11 5 6 1009.7 1009.7 1.6
24/04:00am 12.0 10.8 9.6 85 1.2 SW 6 9 3 5 1009.5 1009.5 1.6
24/03:30am 11.7 10.7 10.3 91 0.7 WSW 6 7 3 4 1009.5 1009.5 1.6
24/03:00am 12.7 11.7 10.4 86 1.2 WSW 6 9 3 5 1009.6 1009.6 1.6
24/02:30am 13.6 13.2 9.6 77 2.0 W 2 6 1 3 1009.8 1009.8 1.6
24/02:00am 13.7 12.6 9.9 78 2.0 SW 6 7 3 4 1009.9 1009.9 1.6
24/01:30am 13.6 12.4 10.4 81 1.7 SW 7 9 4 5 1009.7 1009.7 1.6
24/01:00am 13.1 13.1 12.3 95 0.4 W 4 6 2 3 1009.8 1009.8 1.6
24/12:30am 13.0 12.6 12.4 96 0.3 NNE 6 6 3 3 1009.6 1009.6 1.6
24/12:00am 13.0 13.8 12.7 98 0.2 CALM 0 0 0 0 1009.7 1009.7 1.6
 
Date/Time
EST
Temp
°C
App
Temp
°C
Dew
Point
°C
Rel
Hum
%
Delta-T
°C
Wind Press
QNH
hPa
Press
MSL
hPa
Rain since
9am
mm
Dir  Spd
km/h
Gust
km/h
Spd
kts
Gust
kts
23/11:30pm 13.0 13.8 12.7 98 0.2 CALM 0 0 0 0 1009.6 1009.6 1.6
23/11:00pm 13.0 13.9 12.8 99 0.1 CALM 0 0 0 0 1009.5 1009.5 1.6
23/10:30pm 13.0 13.9 12.8 99 0.1 CALM 0 0 0 0 1009.6 1009.6 1.6
23/10:00pm 13.0 13.9 12.8 99 0.1 CALM 0 0 0 0 1009.6 1009.6 1.6
23/09:30pm 13.1 14.0 12.8 98 0.2 CALM 0 0 0 0 1009.5 1009.5 1.6
23/09:00pm 13.1 14.0 12.8 98 0.2 CALM 0 0 0 0 1009.4 1009.4 1.6
23/08:30pm 13.1 14.0 12.8 98 0.2 CALM 0 0 0 0 1009.2 1009.2 1.6
23/08:00pm 13.1 14.0 12.8 98 0.2 CALM 0 0 0 0 1009.0 1009.0 1.6
23/07:30pm 13.0 13.5 12.7 98 0.2 NNE 2 6 1 3 1008.8 1008.8 1.6
23/07:00pm 13.2 13.0 12.9 98 0.2 N 6 7 3 4 1008.6 1008.6 1.6
23/06:30pm 13.3 14.2 13.0 98 0.2 CALM 0 0 0 0 1008.3 1008.3 1.6
23/06:00pm 13.1 14.0 12.8 98 0.2 CALM 0 0 0 0 1008.1 1008.1 1.6
23/05:30pm 13.4 14.4 13.1 98 0.2 CALM 0 0 0 0 1007.9 1007.9 1.6
23/05:00pm 13.7 13.6 13.4 98 0.2 N 6 7 3 4 1007.8 1007.8 1.6
23/04:30pm 14.0 13.8 13.5 97 0.3 NNW 7 9 4 5 1007.8 1007.8 1.6
23/04:00pm 14.0 13.4 13.5 97 0.3 NNW 9 11 5 6 1007.9 1007.9 1.6
23/03:30pm 14.1 13.9 13.6 97 0.3 NW 7 9 4 5 1008.1 1008.1 1.0
23/03:00pm 14.1 13.1 13.5 96 0.3 NNW 11 15 6 8 1008.0 1008.0 0.8
23/02:30pm 14.8 14.3 12.7 87 1.2 WNW 7 11 4 6 1007.9 1007.9 0.4
23/02:00pm 15.2 14.4 11.8 80 1.8 WSW 7 13 4 7 1007.8 1007.8 0.4
23/01:30pm 15.1 13.5 11.7 80 1.8 SW 11 19 6 10 1007.9 1007.9 0.4
23/01:00pm 15.4 13.5 11.8 79 2.0 SW 13 19 7 10 1007.9 1007.9 0.2
23/12:30pm 16.1 13.0 10.2 68 3.1 SSW 17 20 9 11 1007.8 1007.8 0.0
23/12:00pm 17.7 12.8 8.3 54 4.8 SW 24 37 13 20 1007.9 1007.9 0.0
23/11:30am 18.3 14.9 9.1 55 4.8 SW 17 22 9 12 1007.9 1007.9 0.0
23/11:00am 18.8 14.7 8.7 52 5.3 WSW 20 28 11 15 1008.0 1008.0 0.0

Other formats

Comma delimited format used in spreadsheet applications
http://www.bom.gov.au/fwo/IDN60801/IDN60801.95753.axf

JavaScript Object Notation format (JSON) in row-major order
http://www.bom.gov.au/fwo/IDN60801/IDN60801.95753.json

Data quality

Most of these data are generated automatically and are frequently updated. Quality checks on data are not normally performed. It is possible for incorrect values to appear. Refer to information at About Latest Weather Observations and please check the disclaimer before using these data.